Weather observations for the past three days for
Kivalina, Kivalina Airport
| Date | Time (akdt) | Wind (kph) | Vis. (km) | Weather | Sky Cond. | Temperature (ºC) | Relative Humidity | Wind Chill (°C) | Heat Index (°C) | Pressure | Precipitation (cm) | ||||||
|---|---|---|---|---|---|---|---|---|---|---|---|---|---|---|---|---|---|
| Air | Dwpt | 6 hour | altimeter (cm) | sea level (mb) | 1 hr | 3 hr | 6 hr | ||||||||||
| Max. | Min. | ||||||||||||||||
| 03 | 21:53 | S 28 | 16.09 | Overcast | BKN018 OVC035 | -2.2 | -3.9 | -2.2 | -2.2 | 88% | -9 | 76.3 | 1017.3 | ||||
| 03 | 20:53 | S 30 | 16.09 | Overcast | SCT026 OVC037 | -2.2 | -4.4 | 85% | -9 | 76.33 | 1017.4 | ||||||
| 03 | 19:53 | S 33 | 9.66 | Fog/Mist and Breezy | OVC019 | -2.2 | -4.4 | 85% | -9 | 76.3 | 1017.3 | ||||||
| 03 | 18:53 | S 35 | 8.05 | Fog/Mist and Breezy | OVC020 | -2.2 | -3.9 | 88% | -9 | 76.3 | 1017.1 | ||||||
| 03 | 17:53 | S 30 | 14.48 | Overcast | SCT028 OVC036 | -2.2 | -3.9 | 88% | -9 | 76.3 | 1017.2 | ||||||
| 03 | 16:53 | S 28 | 8.05 | Fog/Mist | BKN034 OVC042 | -2.2 | -3.9 | 88% | -9 | 76.3 | 1017.3 | ||||||
| 03 | 15:53 | S 28 | 8.05 | Fog/Mist | SCT011 OVC024 | -2.2 | -3.9 | -2.2 | -4.4 | 88% | -9 | 76.3 | 1017.4 | ||||
| 03 | 14:53 | S 31 | 16.09 | Overcast | OVC010 | -2.8 | -3.9 | 92% | -10 | 76.3 | 1017.2 | ||||||
| 03 | 13:53 | S 30 | 8.05 | Fog/Mist | BKN009 OVC014 | -3.3 | -4.4 | 92% | -10 | 76.3 | 1017.1 | ||||||
| 03 | 12:53 | S 20 | 11.27 | Overcast | BKN014 OVC020 | -3.3 | -5 | 88% | -9 | 76.28 | 1017.0 | ||||||
| 03 | 11:53 | S 28 | 16.09 | Overcast | SCT015 BKN023 OVC033 | -3.3 | -5.6 | 84% | -10 | 76.25 | 1016.5 | ||||||
| 03 | 10:53 | S 26 | 16.09 | Overcast | OVC033 | -3.9 | -6.7 | 81% | -11 | 76.2 | 1015.9 | ||||||
| 03 | 09:53 | S 26 | 16.09 | Overcast | FEW017 BKN023 OVC029 | -4.4 | -6.7 | -4.4 | -6.1 | 84% | -11 | 76.17 | 1015.4 | ||||
| 03 | 08:53 | SW 19 | 16.09 | Overcast | OVC017 | -5.6 | -8.3 | 82% | -12 | 76.12 | 1015.0 | ||||||
| 03 | 07:53 | SW 31 | 16.09 | Overcast | OVC016 | -6.1 | -8.9 | 81% | -14 | 76.07 | 1014.3 | ||||||
| 03 | 06:53 | SW 26 | 16.09 | Overcast | OVC017 | -6.1 | -8.9 | 81% | -13 | 76.02 | 1013.6 | ||||||
| 03 | 05:53 | SW 28 | 16.09 | Overcast | OVC015 | -6.1 | -8.3 | 85% | -14 | 76 | 1013.1 | ||||||
| 03 | 04:53 | SW 28 | 16.09 | Overcast | OVC017 | -5.6 | -8.3 | 82% | -13 | 75.95 | 1012.5 | ||||||
| 03 | 02:53 | SW 24 | 6.44 | Fog/Mist | OVC010 | -5.6 | -6.7 | 92% | -12 | 75.84 | 1011.2 | ||||||
| 03 | 01:53 | SW 22 | 16.09 | Overcast | OVC011 | -5.6 | -6.7 | 92% | -12 | 75.79 | 1010.6 | ||||||
| 03 | 00:53 | SW 24 | 11.27 | Overcast | OVC010 | -5 | -6.7 | 88% | -12 | 75.74 | 1009.8 | ||||||
| 02 | 23:53 | SW 20 | 9.66 | Fog/Mist | OVC009 | -5 | -6.1 | 92% | -11 | 75.69 | 1009.1 | ||||||
| 02 | 22:53 | SW 24 | 16.09 | Overcast | OVC008 | -5 | -6.1 | 92% | -12 | 75.62 | 1008.1 | ||||||
| 02 | 21:53 | SW 26 | 12.87 | Overcast | OVC008 | -5 | -6.1 | -2.8 | -5 | 92% | -12 | 75.57 | 1007.5 | ||||
| 02 | 20:53 | SW 24 | 16.09 | Overcast | OVC009 | -4.4 | -6.1 | 88% | -11 | 75.51 | 1006.6 | ||||||
| 02 | 19:53 | SW 22 | 9.66 | Fog/Mist | OVC009 | -3.9 | -5.6 | 88% | -10 | 75.44 | 1005.8 | ||||||
| 02 | 18:53 | SW 20 | 8.05 | Fog/Mist | OVC010 | -3.9 | -5 | 92% | -10 | 75.36 | 1004.9 | ||||||
| 02 | 17:53 | SW 24 | 12.87 | Overcast | OVC009 | -3.3 | -5 | 88% | -10 | 75.31 | 1004.1 | ||||||
| 02 | 16:53 | SW 24 | 2.82 | Fog/Mist | SCT008 OVC024 | -2.8 | -4.4 | 89% | -9 | 75.23 | 1003.1 | ||||||
| 02 | 15:53 | SW 20 | 4.02 | Fog/Mist | BKN007 OVC034 | -2.8 | -3.9 | 1.1 | -2.8 | 92% | -8 | 75.16 | 1001.9 | ||||
| 02 | 14:53 | SW 22 | 2.41 | Fog/Mist | BKN006 BKN012 OVC018 | -1.7 | -2.8 | 92% | -7 | 75.08 | 1001.0 | ||||||
| 02 | 13:53 | SW 17 | 12.87 | Overcast | BKN005 BKN010 OVC015 | -0.6 | -1.1 | 96% | -5 | 75.01 | 999.9 | ||||||
| 02 | 12:53 | SW 15 | 1.61 | Fog/Mist | VV005 | 0 | 0 | 100% | -4 | 74.93 | 998.9 | ||||||
| 02 | 11:53 | S 9 | 0.80 | Fog | FEW005 BKN012 OVC025 | 0.6 | 0.6 | 100% | -2 | 74.85 | 998.0 | ||||||
| 02 | 10:53 | S 11 | 0.80 | Fog | FEW003 OVC011 | 0.6 | 0.6 | 100% | -2 | 74.8 | 997.1 | ||||||
| 02 | 09:53 | S 7 | 0.80 | Fog | VV004 | 1.1 | 0.6 | 1.7 | 1.1 | 97% | -1 | 74.75 | 996.5 | ||||
| 02 | 08:53 | SE 7 | 4.02 | Fog/Mist | OVC006 | 1.1 | 0.6 | 97% | -1 | 74.7 | 996.0 | ||||||
| 02 | 07:53 | E 7 | 16.09 | Overcast | BKN012 OVC022 | 1.1 | 0.6 | 97% | -1 | 74.68 | 995.4 | ||||||
| 02 | 06:53 | E 9 | 16.09 | Overcast | OVC008 | 1.1 | 0.6 | 97% | -1 | 74.63 | 995.0 | ||||||
| 02 | 05:53 | E 9 | 16.09 | Overcast | BKN018 OVC025 | 1.1 | 0.6 | 97% | -1 | 74.6 | 994.6 | ||||||
| 02 | 04:53 | E 11 | 16.09 | Overcast | BKN012 OVC017 | 1.7 | 0.6 | 93% | -1 | 74.57 | 994.3 | ||||||
| 02 | 03:53 | E 17 | 16.09 | Overcast | BKN018 OVC032 | 1.1 | 0.6 | 1.7 | 1.1 | 97% | -3 | 74.55 | 994.0 | ||||
| 02 | 02:53 | E 15 | 16.09 | Overcast | BKN018 OVC024 | 1.1 | 0.6 | 97% | -3 | 74.55 | 993.8 | ||||||
| 02 | 01:53 | E 17 | 14.48 | Overcast | OVC017 | 1.1 | 1.1 | 100% | -3 | 74.52 | 993.7 | ||||||
| 02 | 00:53 | E 17 | 14.48 | Overcast | OVC018 | 1.1 | 1.1 | 100% | -3 | 74.52 | 993.4 | ||||||
| 01 | 23:53 | E 19 | 16.09 | Overcast | OVC020 | 1.7 | 1.1 | 96% | -2 | 74.5 | 993.2 | ||||||
| 01 | 22:53 | E 17 | 16.09 | Overcast | OVC021 | 1.7 | 1.1 | 96% | -2 | 74.5 | 993.0 | ||||||
| 01 | 21:53 | E 15 | 14.48 | Overcast | OVC022 | 1.7 | 1.1 | 2.2 | 1.7 | 96% | -2 | 74.47 | 993.0 | ||||
| 01 | 20:53 | E 15 | 14.48 | Overcast | BKN018 OVC024 | 2.2 | 1.7 | 97% | -1 | 74.5 | 993.1 | ||||||
| 01 | 19:53 | E 9 | 8.05 | Fog/Mist | OVC013 | 1.7 | 1.1 | 96% | -1 | 74.5 | 993.2 | ||||||
| 01 | 18:53 | E 11 | 11.27 | Overcast | OVC014 | 1.7 | 1.1 | 96% | -1 | 74.52 | 993.4 | ||||||
| 01 | 17:53 | E 13 | 11.27 | Overcast | OVC014 | 1.7 | 1.1 | 96% | -2 | 74.52 | 993.5 | ||||||
| 01 | 16:53 | E 15 | 9.66 | Fog/Mist | OVC013 | 2.2 | 1.1 | 93% | -1 | 74.55 | 994.0 | ||||||
| 01 | 15:53 | E 9 | 12.87 | Overcast | OVC014 | 1.7 | 1.1 | 2.2 | 0.6 | 96% | -1 | 74.57 | 994.3 | ||||
| 01 | 14:53 | E 13 | 16.09 | Overcast | OVC014 | 1.7 | 1.1 | 96% | -2 | 74.6 | 994.5 | ||||||
| 01 | 13:53 | E 13 | 9.66 | Fog/Mist | BKN010 OVC014 | 1.7 | 0.6 | 93% | -2 | 74.63 | 994.9 | ||||||
| 01 | 12:53 | E 19 | 14.48 | Overcast | OVC015 | 1.7 | 0.6 | 93% | -2 | 74.65 | 995.1 | ||||||
| 01 | 11:53 | E 19 | 4.83 | Fog/Mist | OVC015 | 1.1 | 0 | 92% | -3 | 74.65 | 995.3 | ||||||
| 01 | 10:53 | E 20 | 12.87 | Overcast | OVC017 | 1.1 | 0 | 92% | -3 | 74.68 | 995.5 | ||||||
| 01 | 09:53 | E 20 | 11.27 | Overcast | OVC021 | 1.1 | 0 | 1.7 | 1.1 | 92% | -3 | 74.7 | 995.8 | ||||
| 01 | 08:53 | E 26 | 9.66 | Fog/Mist | OVC024 | 1.1 | 0 | 92% | -4 | 74.73 | 996.3 | ||||||
| 01 | 07:53 | E 30 | 11.27 | Overcast | OVC026 | 1.1 | 0 | 92% | -5 | 74.75 | 996.7 | ||||||
| 01 | 06:53 | E 35 | 11.27 | Overcast and Breezy | OVC023 | 1.7 | 0 | 89% | -4 | 74.8 | 997.4 | ||||||
| 01 | 05:53 | E 35 G 48 | 16.09 | Overcast and Breezy | OVC033 | 1.7 | 0 | 89% | -4 | 74.85 | 998.0 | ||||||
| 01 | 04:53 | E 33 | 16.09 | Overcast and Breezy | OVC033 | 1.1 | 0 | 92% | -5 | 74.93 | 998.9 | ||||||
| 01 | 03:53 | NE 28 | 16.09 | Overcast | OVC039 | 1.1 | 0 | 2.8 | 1.1 | 92% | -4 | 74.98 | 999.6 | ||||
| 01 | 02:53 | E 28 | 16.09 | Overcast | FEW020 OVC028 | 1.7 | 0 | 89% | -4 | 75.06 | 1000.5 | ||||||
| 01 | 01:53 | NE 30 | 16.09 | Overcast | OVC032 | 1.7 | 0 | 89% | -4 | 75.11 | 1001.3 | ||||||
| 01 | 00:53 | E 30 | 16.09 | Overcast | OVC050 | 1.1 | 0 | 92% | -5 | 75.16 | 1002.1 | ||||||
| 30 | 23:53 | E 31 | 16.09 | Overcast | BKN060 OVC080 | 2.2 | -0.6 | 82% | -3 | 75.21 | 1002.5 | ||||||
| 30 | 22:53 | NE 22 | 16.09 | Overcast | SCT070 OVC085 | 2.2 | -1.1 | 79% | -2 | 75.21 | 1002.7 | ||||||
| Date | Time (akdt) | Wind (kph) | Vis. (km) | Weather | Sky Cond. | Air | Dwpt | Max. | Min. | Relative Humidity | Wind Chill (°C) | Heat Index (°C) | altimeter (cm) | sea level (mb) | 1 hr | 3 hr | 6 hr |
| 6 hour | |||||||||||||||||
| Temperature (ºC) | Pressure | Precipitation (cm) | |||||||||||||||